sensor_id;sensor_type;location;lat;lon;timestamp;P1;durP1;ratioP1;P2;durP2;ratioP2
22111;SDS011;11222;50.872;4.312;2023-06-22T00:01:53;10.50;;;7.30;;
22111;SDS011;11222;50.872;4.312;2023-06-22T00:04:18;14.30;;;7.53;;
22111;SDS011;11222;50.872;4.312;2023-06-22T00:06:44;9.77;;;6.80;;
22111;SDS011;11222;50.872;4.312;2023-06-22T00:09:10;8.57;;;7.15;;
22111;SDS011;11222;50.872;4.312;2023-06-22T00:11:38;7.07;;;6.38;;
22111;SDS011;11222;50.872;4.312;2023-06-22T00:14:04;8.13;;;6.35;;
22111;SDS011;11222;50.872;4.312;2023-06-22T00:16:34;6.10;;;5.50;;
22111;SDS011;11222;50.872;4.312;2023-06-22T00:18:59;6.93;;;6.10;;
22111;SDS011;11222;50.872;4.312;2023-06-22T00:21:27;6.90;;;6.28;;
22111;SDS011;11222;50.872;4.312;2023-06-22T00:23:52;7.65;;;6.75;;
22111;SDS011;11222;50.872;4.312;2023-06-22T00:26:19;9.20;;;7.10;;
22111;SDS011;11222;50.872;4.312;2023-06-22T00:28:46;10.15;;;6.60;;
22111;SDS011;11222;50.872;4.312;2023-06-22T00:31:12;7.57;;;6.78;;
22111;SDS011;11222;50.872;4.312;2023-06-22T00:33:37;8.00;;;6.63;;
22111;SDS011;11222;50.872;4.312;2023-06-22T00:36:03;6.88;;;6.03;;
22111;SDS011;11222;50.872;4.312;2023-06-22T00:38:29;7.47;;;5.88;;
22111;SDS011;11222;50.872;4.312;2023-06-22T00:40:55;5.97;;;5.30;;
22111;SDS011;11222;50.872;4.312;2023-06-22T00:43:21;6.22;;;5.63;;
22111;SDS011;11222;50.872;4.312;2023-06-22T00:45:46;6.53;;;5.80;;
22111;SDS011;11222;50.872;4.312;2023-06-22T00:48:12;7.70;;;5.38;;
22111;SDS011;11222;50.872;4.312;2023-06-22T00:50:39;5.97;;;5.13;;
22111;SDS011;11222;50.872;4.312;2023-06-22T00:53:06;6.70;;;5.53;;
22111;SDS011;11222;50.872;4.312;2023-06-22T00:55:51;8.20;;;6.10;;
22111;SDS011;11222;50.872;4.312;2023-06-22T00:58:17;6.13;;;5.45;;
22111;SDS011;11222;50.872;4.312;2023-06-22T01:00:46;5.55;;;4.97;;
22111;SDS011;11222;50.872;4.312;2023-06-22T01:03:12;8.95;;;5.72;;
22111;SDS011;11222;50.872;4.312;2023-06-22T01:05:38;7.18;;;5.63;;
22111;SDS011;11222;50.872;4.312;2023-06-22T01:11:07;6.97;;;5.68;;
22111;SDS011;11222;50.872;4.312;2023-06-22T01:14:20;8.30;;;5.47;;
22111;SDS011;11222;50.872;4.312;2023-06-22T01:16:38;8.15;;;5.80;;
22111;SDS011;11222;50.872;4.312;2023-06-22T01:19:15;7.47;;;5.72;;
22111;SDS011;11222;50.872;4.312;2023-06-22T01:21:43;9.33;;;7.27;;
22111;SDS011;11222;50.872;4.312;2023-06-22T01:26:43;9.68;;;7.53;;
22111;SDS011;11222;50.872;4.312;2023-06-22T01:29:18;12.48;;;7.00;;
22111;SDS011;11222;50.872;4.312;2023-06-22T01:31:46;8.05;;;6.93;;
22111;SDS011;11222;50.872;4.312;2023-06-22T01:34:14;7.20;;;6.43;;
22111;SDS011;11222;50.872;4.312;2023-06-22T01:36:41;5.15;;;4.75;;
22111;SDS011;11222;50.872;4.312;2023-06-22T01:39:07;5.97;;;5.38;;
22111;SDS011;11222;50.872;4.312;2023-06-22T01:41:35;9.77;;;7.35;;
22111;SDS011;11222;50.872;4.312;2023-06-22T01:44:03;7.68;;;6.80;;
22111;SDS011;11222;50.872;4.312;2023-06-22T01:46:32;5.95;;;4.88;;
22111;SDS011;11222;50.872;4.312;2023-06-22T01:48:59;6.10;;;5.50;;
22111;SDS011;11222;50.872;4.312;2023-06-22T01:51:26;9.13;;;6.60;;
22111;SDS011;11222;50.872;4.312;2023-06-22T01:53:51;7.80;;;6.90;;
22111;SDS011;11222;50.872;4.312;2023-06-22T01:56:17;9.68;;;8.40;;
22111;SDS011;11222;50.872;4.312;2023-06-22T01:59:26;11.35;;;9.50;;
22111;SDS011;11222;50.872;4.312;2023-06-22T02:01:41;12.23;;;10.63;;
22111;SDS011;11222;50.872;4.312;2023-06-22T02:04:13;16.40;;;14.63;;
22111;SDS011;11222;50.872;4.312;2023-06-22T02:06:45;25.20;;;22.73;;
22111;SDS011;11222;50.872;4.312;2023-06-22T02:09:14;13.35;;;10.55;;
22111;SDS011;11222;50.872;4.312;2023-06-22T02:11:43;11.48;;;10.25;;
22111;SDS011;11222;50.872;4.312;2023-06-22T02:14:12;13.93;;;12.27;;
22111;SDS011;11222;50.872;4.312;2023-06-22T02:16:39;15.02;;;12.77;;
22111;SDS011;11222;50.872;4.312;2023-06-22T02:19:06;7.78;;;6.97;;
22111;SDS011;11222;50.872;4.312;2023-06-22T02:21:31;24.20;;;21.48;;
22111;SDS011;11222;50.872;4.312;2023-06-22T02:23:57;10.55;;;8.07;;
22111;SDS011;11222;50.872;4.312;2023-06-22T02:26:24;13.07;;;11.70;;
22111;SDS011;11222;50.872;4.312;2023-06-22T02:28:51;15.55;;;12.88;;
22111;SDS011;11222;50.872;4.312;2023-06-22T02:31:17;9.48;;;8.52;;
22111;SDS011;11222;50.872;4.312;2023-06-22T02:33:43;12.77;;;9.65;;
22111;SDS011;11222;50.872;4.312;2023-06-22T02:36:09;14.82;;;9.95;;
22111;SDS011;11222;50.872;4.312;2023-06-22T02:38:38;9.50;;;7.70;;
22111;SDS011;11222;50.872;4.312;2023-06-22T02:41:13;13.95;;;9.10;;
22111;SDS011;11222;50.872;4.312;2023-06-22T02:43:45;14.40;;;10.55;;
22111;SDS011;11222;50.872;4.312;2023-06-22T02:46:12;13.55;;;8.95;;
22111;SDS011;11222;50.872;4.312;2023-06-22T02:48:41;20.67;;;14.52;;
22111;SDS011;11222;50.872;4.312;2023-06-22T02:51:07;11.13;;;7.63;;
22111;SDS011;11222;50.872;4.312;2023-06-22T02:53:33;11.43;;;7.70;;
22111;SDS011;11222;50.872;4.312;2023-06-22T02:56:00;8.52;;;7.18;;
22111;SDS011;11222;50.872;4.312;2023-06-22T02:58:28;9.10;;;7.75;;
22111;SDS011;11222;50.872;4.312;2023-06-22T03:00:53;9.27;;;7.10;;
22111;SDS011;11222;50.872;4.312;2023-06-22T03:03:19;9.93;;;7.32;;
22111;SDS011;11222;50.872;4.312;2023-06-22T03:05:45;12.45;;;8.63;;
22111;SDS011;11222;50.872;4.312;2023-06-22T03:08:11;10.25;;;8.07;;
22111;SDS011;11222;50.872;4.312;2023-06-22T03:10:36;9.70;;;8.70;;
22111;SDS011;11222;50.872;4.312;2023-06-22T03:13:02;8.73;;;7.38;;
22111;SDS011;11222;50.872;4.312;2023-06-22T03:15:28;10.35;;;7.88;;
22111;SDS011;11222;50.872;4.312;2023-06-22T03:17:57;8.45;;;7.43;;
22111;SDS011;11222;50.872;4.312;2023-06-22T03:20:23;10.27;;;8.25;;
22111;SDS011;11222;50.872;4.312;2023-06-22T03:22:50;9.30;;;7.30;;
22111;SDS011;11222;50.872;4.312;2023-06-22T03:25:15;8.80;;;7.90;;
22111;SDS011;11222;50.872;4.312;2023-06-22T03:27:41;11.32;;;8.68;;
22111;SDS011;11222;50.872;4.312;2023-06-22T03:30:09;8.90;;;7.50;;
22111;SDS011;11222;50.872;4.312;2023-06-22T03:32:36;9.00;;;7.22;;
22111;SDS011;11222;50.872;4.312;2023-06-22T03:35:02;8.00;;;7.10;;
22111;SDS011;11222;50.872;4.312;2023-06-22T03:37:27;10.65;;;7.82;;
22111;SDS011;11222;50.872;4.312;2023-06-22T03:39:54;8.82;;;7.50;;
22111;SDS011;11222;50.872;4.312;2023-06-22T03:42:20;9.07;;;7.53;;
22111;SDS011;11222;50.872;4.312;2023-06-22T03:44:46;10.77;;;7.88;;
22111;SDS011;11222;50.872;4.312;2023-06-22T03:47:11;11.88;;;8.43;;
22111;SDS011;11222;50.872;4.312;2023-06-22T03:49:37;11.98;;;8.73;;
22111;SDS011;11222;50.872;4.312;2023-06-22T03:52:03;9.40;;;8.05;;
22111;SDS011;11222;50.872;4.312;2023-06-22T03:54:29;10.90;;;8.32;;
22111;SDS011;11222;50.872;4.312;2023-06-22T03:56:56;9.60;;;8.60;;
22111;SDS011;11222;50.872;4.312;2023-06-22T03:59:22;10.35;;;8.35;;
22111;SDS011;11222;50.872;4.312;2023-06-22T04:01:48;10.07;;;8.15;;
22111;SDS011;11222;50.872;4.312;2023-06-22T04:04:15;11.10;;;8.60;;
22111;SDS011;11222;50.872;4.312;2023-06-22T04:06:41;11.00;;;8.73;;
22111;SDS011;11222;50.872;4.312;2023-06-22T04:09:07;9.02;;;8.07;;
22111;SDS011;11222;50.872;4.312;2023-06-22T04:11:32;11.40;;;8.90;;
22111;SDS011;11222;50.872;4.312;2023-06-22T04:13:58;16.38;;;8.80;;
22111;SDS011;11222;50.872;4.312;2023-06-22T04:16:24;11.52;;;9.10;;
22111;SDS011;11222;50.872;4.312;2023-06-22T04:18:49;13.02;;;10.68;;
22111;SDS011;11222;50.872;4.312;2023-06-22T04:21:15;21.10;;;13.77;;
22111;SDS011;11222;50.872;4.312;2023-06-22T04:23:40;16.67;;;12.73;;
22111;SDS011;11222;50.872;4.312;2023-06-22T04:26:06;17.23;;;12.13;;
22111;SDS011;11222;50.872;4.312;2023-06-22T04:28:32;13.10;;;9.93;;
22111;SDS011;11222;50.872;4.312;2023-06-22T04:31:00;16.02;;;10.35;;
22111;SDS011;11222;50.872;4.312;2023-06-22T04:33:27;14.27;;;11.55;;
22111;SDS011;11222;50.872;4.312;2023-06-22T04:35:56;16.23;;;11.10;;
22111;SDS011;11222;50.872;4.312;2023-06-22T04:38:22;14.45;;;11.43;;
22111;SDS011;11222;50.872;4.312;2023-06-22T04:40:49;16.38;;;11.55;;
22111;SDS011;11222;50.872;4.312;2023-06-22T04:43:15;15.65;;;11.52;;
22111;SDS011;11222;50.872;4.312;2023-06-22T04:45:41;16.60;;;10.75;;
22111;SDS011;11222;50.872;4.312;2023-06-22T04:48:07;13.90;;;11.10;;
22111;SDS011;11222;50.872;4.312;2023-06-22T04:50:40;19.02;;;10.93;;
22111;SDS011;11222;50.872;4.312;2023-06-22T04:53:07;16.02;;;11.27;;
22111;SDS011;11222;50.872;4.312;2023-06-22T04:55:34;17.08;;;11.45;;
22111;SDS011;11222;50.872;4.312;2023-06-22T04:58:03;20.58;;;12.10;;
22111;SDS011;11222;50.872;4.312;2023-06-22T05:00:29;22.02;;;11.25;;
22111;SDS011;11222;50.872;4.312;2023-06-22T05:02:56;15.90;;;11.20;;
22111;SDS011;11222;50.872;4.312;2023-06-22T05:05:23;15.95;;;11.05;;
22111;SDS011;11222;50.872;4.312;2023-06-22T05:07:49;15.32;;;11.27;;
22111;SDS011;11222;50.872;4.312;2023-06-22T05:10:18;19.08;;;11.25;;
22111;SDS011;11222;50.872;4.312;2023-06-22T05:12:44;18.40;;;11.13;;
22111;SDS011;11222;50.872;4.312;2023-06-22T05:15:10;14.27;;;11.63;;
22111;SDS011;11222;50.872;4.312;2023-06-22T05:17:36;17.75;;;10.95;;
22111;SDS011;11222;50.872;4.312;2023-06-22T05:20:08;20.20;;;11.63;;
22111;SDS011;11222;50.872;4.312;2023-06-22T05:22:37;19.73;;;12.57;;
22111;SDS011;11222;50.872;4.312;2023-06-22T05:25:08;18.02;;;14.05;;
22111;SDS011;11222;50.872;4.312;2023-06-22T05:27:35;16.05;;;12.95;;
22111;SDS011;11222;50.872;4.312;2023-06-22T05:30:04;15.50;;;12.75;;
22111;SDS011;11222;50.872;4.312;2023-06-22T05:32:34;20.52;;;13.13;;
22111;SDS011;11222;50.872;4.312;2023-06-22T05:35:00;19.30;;;14.15;;
22111;SDS011;11222;50.872;4.312;2023-06-22T05:37:26;18.25;;;13.20;;
22111;SDS011;11222;50.872;4.312;2023-06-22T05:39:51;18.33;;;12.95;;
22111;SDS011;11222;50.872;4.312;2023-06-22T05:42:17;23.15;;;14.63;;
22111;SDS011;11222;50.872;4.312;2023-06-22T05:44:43;17.08;;;12.80;;
22111;SDS011;11222;50.872;4.312;2023-06-22T05:47:09;20.58;;;13.77;;
22111;SDS011;11222;50.872;4.312;2023-06-22T05:49:34;17.30;;;12.80;;
22111;SDS011;11222;50.872;4.312;2023-06-22T05:52:00;20.58;;;14.10;;
22111;SDS011;11222;50.872;4.312;2023-06-22T05:54:29;22.45;;;14.20;;
22111;SDS011;11222;50.872;4.312;2023-06-22T05:56:54;20.30;;;13.77;;
22111;SDS011;11222;50.872;4.312;2023-06-22T05:59:20;24.38;;;14.02;;
22111;SDS011;11222;50.872;4.312;2023-06-22T06:01:46;20.52;;;14.45;;
22111;SDS011;11222;50.872;4.312;2023-06-22T06:04:18;19.05;;;14.57;;
22111;SDS011;11222;50.872;4.312;2023-06-22T06:06:44;21.92;;;14.38;;
22111;SDS011;11222;50.872;4.312;2023-06-22T06:09:12;18.35;;;14.50;;
22111;SDS011;11222;50.872;4.312;2023-06-22T06:11:38;18.77;;;14.20;;
22111;SDS011;11222;50.872;4.312;2023-06-22T06:14:04;24.75;;;13.90;;
22111;SDS011;11222;50.872;4.312;2023-06-22T06:16:29;16.88;;;13.30;;
22111;SDS011;11222;50.872;4.312;2023-06-22T06:18:55;16.88;;;13.70;;
22111;SDS011;11222;50.872;4.312;2023-06-22T06:21:21;21.20;;;13.95;;
22111;SDS011;11222;50.872;4.312;2023-06-22T06:23:47;21.27;;;14.95;;
22111;SDS011;11222;50.872;4.312;2023-06-22T06:26:12;20.80;;;15.43;;
22111;SDS011;11222;50.872;4.312;2023-06-22T06:28:41;25.33;;;15.07;;
22111;SDS011;11222;50.872;4.312;2023-06-22T06:31:07;22.98;;;15.63;;
22111;SDS011;11222;50.872;4.312;2023-06-22T06:33:33;28.27;;;15.90;;
22111;SDS011;11222;50.872;4.312;2023-06-22T06:35:59;18.88;;;15.25;;
22111;SDS011;11222;50.872;4.312;2023-06-22T06:38:27;19.15;;;14.63;;
22111;SDS011;11222;50.872;4.312;2023-06-22T06:40:53;30.50;;;15.95;;
22111;SDS011;11222;50.872;4.312;2023-06-22T06:43:18;26.58;;;15.70;;
22111;SDS011;11222;50.872;4.312;2023-06-22T06:45:44;30.80;;;14.88;;
22111;SDS011;11222;50.872;4.312;2023-06-22T06:48:10;22.95;;;15.63;;
22111;SDS011;11222;50.872;4.312;2023-06-22T06:50:35;25.45;;;15.57;;
22111;SDS011;11222;50.872;4.312;2023-06-22T06:53:01;22.20;;;15.65;;
22111;SDS011;11222;50.872;4.312;2023-06-22T06:55:27;21.45;;;16.38;;
22111;SDS011;11222;50.872;4.312;2023-06-22T06:57:55;21.88;;;15.73;;
22111;SDS011;11222;50.872;4.312;2023-06-22T07:00:20;22.23;;;15.57;;
22111;SDS011;11222;50.872;4.312;2023-06-22T07:02:47;19.98;;;16.00;;
22111;SDS011;11222;50.872;4.312;2023-06-22T07:05:13;20.63;;;16.30;;
22111;SDS011;11222;50.872;4.312;2023-06-22T07:07:39;20.25;;;15.75;;
22111;SDS011;11222;50.872;4.312;2023-06-22T07:10:06;21.58;;;16.10;;
22111;SDS011;11222;50.872;4.312;2023-06-22T07:12:32;20.02;;;16.90;;
22111;SDS011;11222;50.872;4.312;2023-06-22T07:15:02;17.65;;;15.75;;
22111;SDS011;11222;50.872;4.312;2023-06-22T07:17:35;21.33;;;16.65;;
22111;SDS011;11222;50.872;4.312;2023-06-22T07:20:01;17.45;;;15.35;;
22111;SDS011;11222;50.872;4.312;2023-06-22T07:22:32;20.58;;;16.20;;
22111;SDS011;11222;50.872;4.312;2023-06-22T07:24:58;20.95;;;16.42;;
22111;SDS011;11222;50.872;4.312;2023-06-22T07:27:23;26.27;;;16.95;;
22111;SDS011;11222;50.872;4.312;2023-06-22T07:29:49;20.38;;;16.40;;
22111;SDS011;11222;50.872;4.312;2023-06-22T07:32:15;19.13;;;17.00;;
22111;SDS011;11222;50.872;4.312;2023-06-22T07:34:41;20.90;;;16.85;;
22111;SDS011;11222;50.872;4.312;2023-06-22T07:37:07;21.45;;;16.92;;
22111;SDS011;11222;50.872;4.312;2023-06-22T07:39:33;21.75;;;16.60;;
22111;SDS011;11222;50.872;4.312;2023-06-22T07:41:59;19.70;;;17.13;;
22111;SDS011;11222;50.872;4.312;2023-06-22T07:44:24;19.63;;;15.90;;
22111;SDS011;11222;50.872;4.312;2023-06-22T07:46:50;23.08;;;17.33;;
22111;SDS011;11222;50.872;4.312;2023-06-22T07:49:16;21.45;;;16.42;;
22111;SDS011;11222;50.872;4.312;2023-06-22T07:51:42;18.20;;;15.38;;
22111;SDS011;11222;50.872;4.312;2023-06-22T07:54:08;21.92;;;16.25;;
22111;SDS011;11222;50.872;4.312;2023-06-22T07:56:36;21.83;;;16.88;;
22111;SDS011;11222;50.872;4.312;2023-06-22T07:59:02;21.85;;;15.70;;
22111;SDS011;11222;50.872;4.312;2023-06-22T08:01:28;25.67;;;20.42;;
22111;SDS011;11222;50.872;4.312;2023-06-22T08:03:54;19.77;;;15.88;;
22111;SDS011;11222;50.872;4.312;2023-06-22T08:06:20;19.30;;;16.00;;
22111;SDS011;11222;50.872;4.312;2023-06-22T08:08:46;17.75;;;15.85;;
22111;SDS011;11222;50.872;4.312;2023-06-22T08:11:13;18.77;;;15.50;;
22111;SDS011;11222;50.872;4.312;2023-06-22T08:13:39;24.35;;;16.20;;
22111;SDS011;11222;50.872;4.312;2023-06-22T08:16:05;20.23;;;16.38;;
22111;SDS011;11222;50.872;4.312;2023-06-22T08:18:32;19.20;;;15.93;;
22111;SDS011;11222;50.872;4.312;2023-06-22T08:20:58;18.63;;;16.30;;
22111;SDS011;11222;50.872;4.312;2023-06-22T08:23:23;20.65;;;15.68;;
22111;SDS011;11222;50.872;4.312;2023-06-22T08:25:49;18.67;;;16.67;;
22111;SDS011;11222;50.872;4.312;2023-06-22T08:28:15;20.70;;;16.70;;
22111;SDS011;11222;50.872;4.312;2023-06-22T08:30:41;21.80;;;15.63;;
22111;SDS011;11222;50.872;4.312;2023-06-22T08:33:06;19.00;;;16.33;;
22111;SDS011;11222;50.872;4.312;2023-06-22T08:35:32;18.70;;;16.17;;
22111;SDS011;11222;50.872;4.312;2023-06-22T08:37:58;19.25;;;17.25;;
22111;SDS011;11222;50.872;4.312;2023-06-22T08:40:25;20.42;;;17.33;;
22111;SDS011;11222;50.872;4.312;2023-06-22T08:42:50;23.00;;;18.13;;
22111;SDS011;11222;50.872;4.312;2023-06-22T08:45:16;19.08;;;16.98;;
22111;SDS011;11222;50.872;4.312;2023-06-22T08:47:42;21.67;;;17.60;;
22111;SDS011;11222;50.872;4.312;2023-06-22T08:50:08;25.52;;;19.23;;
22111;SDS011;11222;50.872;4.312;2023-06-22T08:52:35;21.33;;;17.30;;
22111;SDS011;11222;50.872;4.312;2023-06-22T08:55:02;22.20;;;18.30;;
22111;SDS011;11222;50.872;4.312;2023-06-22T08:57:28;21.42;;;19.13;;
22111;SDS011;11222;50.872;4.312;2023-06-22T08:59:55;24.50;;;19.38;;
22111;SDS011;11222;50.872;4.312;2023-06-22T09:02:23;21.92;;;19.52;;
22111;SDS011;11222;50.872;4.312;2023-06-22T09:04:49;22.45;;;18.88;;
22111;SDS011;11222;50.872;4.312;2023-06-22T09:07:20;22.20;;;19.08;;
22111;SDS011;11222;50.872;4.312;2023-06-22T09:09:49;22.98;;;20.13;;
22111;SDS011;11222;50.872;4.312;2023-06-22T09:12:16;24.60;;;19.08;;
22111;SDS011;11222;50.872;4.312;2023-06-22T09:14:42;21.73;;;19.30;;
22111;SDS011;11222;50.872;4.312;2023-06-22T09:17:07;23.27;;;19.73;;
22111;SDS011;11222;50.872;4.312;2023-06-22T09:19:33;24.83;;;19.17;;
22111;SDS011;11222;50.872;4.312;2023-06-22T09:21:59;20.98;;;18.55;;
22111;SDS011;11222;50.872;4.312;2023-06-22T09:24:25;21.98;;;19.75;;
22111;SDS011;11222;50.872;4.312;2023-06-22T09:26:51;22.33;;;19.00;;
22111;SDS011;11222;50.872;4.312;2023-06-22T09:29:17;21.92;;;18.30;;
22111;SDS011;11222;50.872;4.312;2023-06-22T09:31:42;21.35;;;19.08;;
22111;SDS011;11222;50.872;4.312;2023-06-22T09:34:09;21.65;;;18.05;;
22111;SDS011;11222;50.872;4.312;2023-06-22T09:36:34;19.88;;;17.67;;
22111;SDS011;11222;50.872;4.312;2023-06-22T09:39:00;22.13;;;19.10;;
22111;SDS011;11222;50.872;4.312;2023-06-22T09:41:30;21.60;;;19.27;;
22111;SDS011;11222;50.872;4.312;2023-06-22T09:43:56;21.23;;;18.88;;
22111;SDS011;11222;50.872;4.312;2023-06-22T09:46:22;21.05;;;19.00;;
22111;SDS011;11222;50.872;4.312;2023-06-22T09:48:50;23.83;;;20.13;;
22111;SDS011;11222;50.872;4.312;2023-06-22T09:51:16;23.90;;;20.08;;
22111;SDS011;11222;50.872;4.312;2023-06-22T09:53:41;25.10;;;20.27;;
22111;SDS011;11222;50.872;4.312;2023-06-22T09:56:07;22.50;;;20.10;;
22111;SDS011;11222;50.872;4.312;2023-06-22T09:58:39;33.38;;;29.75;;
22111;SDS011;11222;50.872;4.312;2023-06-22T10:01:06;33.10;;;29.60;;
22111;SDS011;11222;50.872;4.312;2023-06-22T10:03:32;32.13;;;28.85;;
22111;SDS011;11222;50.872;4.312;2023-06-22T10:05:57;32.63;;;29.10;;
22111;SDS011;11222;50.872;4.312;2023-06-22T10:08:23;32.80;;;29.27;;
22111;SDS011;11222;50.872;4.312;2023-06-22T10:10:49;29.48;;;26.60;;
22111;SDS011;11222;50.872;4.312;2023-06-22T10:13:14;32.42;;;27.60;;
22111;SDS011;11222;50.872;4.312;2023-06-22T10:15:40;34.40;;;26.63;;
22111;SDS011;11222;50.872;4.312;2023-06-22T10:18:06;30.20;;;26.70;;
22111;SDS011;11222;50.872;4.312;2023-06-22T10:20:32;30.73;;;27.02;;
22111;SDS011;11222;50.872;4.312;2023-06-22T10:22:58;31.63;;;26.38;;
22111;SDS011;11222;50.872;4.312;2023-06-22T10:25:24;36.92;;;28.58;;
22111;SDS011;11222;50.872;4.312;2023-06-22T10:27:50;31.00;;;27.65;;
22111;SDS011;11222;50.872;4.312;2023-06-22T10:30:15;40.80;;;30.90;;
22111;SDS011;11222;50.872;4.312;2023-06-22T10:32:42;37.78;;;30.80;;
22111;SDS011;11222;50.872;4.312;2023-06-22T10:35:08;35.15;;;30.52;;
22111;SDS011;11222;50.872;4.312;2023-06-22T10:37:40;37.90;;;30.00;;
22111;SDS011;11222;50.872;4.312;2023-06-22T10:40:08;42.58;;;31.80;;
22111;SDS011;11222;50.872;4.312;2023-06-22T10:42:34;37.08;;;30.30;;
22111;SDS011;11222;50.872;4.312;2023-06-22T10:45:00;38.10;;;31.05;;
22111;SDS011;11222;50.872;4.312;2023-06-22T10:47:26;42.80;;;33.70;;
22111;SDS011;11222;50.872;4.312;2023-06-22T10:49:51;45.22;;;36.40;;
22111;SDS011;11222;50.872;4.312;2023-06-22T10:52:17;45.90;;;37.10;;
22111;SDS011;11222;50.872;4.312;2023-06-22T10:54:42;45.70;;;35.78;;
22111;SDS011;11222;50.872;4.312;2023-06-22T10:57:08;43.60;;;34.90;;
22111;SDS011;11222;50.872;4.312;2023-06-22T10:59:34;50.70;;;37.17;;
22111;SDS011;11222;50.872;4.312;2023-06-22T11:02:00;48.28;;;36.55;;
22111;SDS011;11222;50.872;4.312;2023-06-22T11:04:25;46.55;;;35.83;;
22111;SDS011;11222;50.872;4.312;2023-06-22T11:06:51;47.60;;;37.65;;
22111;SDS011;11222;50.872;4.312;2023-06-22T11:09:17;42.25;;;36.10;;
22111;SDS011;11222;50.872;4.312;2023-06-22T11:11:49;47.88;;;38.28;;
22111;SDS011;11222;50.872;4.312;2023-06-22T11:14:18;49.40;;;36.35;;
22111;SDS011;11222;50.872;4.312;2023-06-22T11:16:44;41.83;;;34.78;;
22111;SDS011;11222;50.872;4.312;2023-06-22T11:19:11;41.95;;;33.45;;
22111;SDS011;11222;50.872;4.312;2023-06-22T11:21:37;39.47;;;33.17;;
22111;SDS011;11222;50.872;4.312;2023-06-22T11:24:03;41.95;;;35.00;;
22111;SDS011;11222;50.872;4.312;2023-06-22T11:26:29;39.20;;;32.05;;
22111;SDS011;11222;50.872;4.312;2023-06-22T11:28:55;38.78;;;31.95;;
22111;SDS011;11222;50.872;4.312;2023-06-22T11:31:20;34.17;;;29.73;;
22111;SDS011;11222;50.872;4.312;2023-06-22T11:33:46;34.47;;;28.95;;
22111;SDS011;11222;50.872;4.312;2023-06-22T11:36:12;31.05;;;26.67;;
22111;SDS011;11222;50.872;4.312;2023-06-22T11:38:39;29.13;;;25.45;;
22111;SDS011;11222;50.872;4.312;2023-06-22T11:41:05;26.73;;;23.80;;
22111;SDS011;11222;50.872;4.312;2023-06-22T11:43:32;29.60;;;25.17;;
22111;SDS011;11222;50.872;4.312;2023-06-22T11:45:58;27.65;;;22.95;;
22111;SDS011;11222;50.872;4.312;2023-06-22T11:48:24;29.20;;;24.23;;
22111;SDS011;11222;50.872;4.312;2023-06-22T11:50:50;27.77;;;24.58;;
22111;SDS011;11222;50.872;4.312;2023-06-22T11:53:16;30.58;;;25.05;;
22111;SDS011;11222;50.872;4.312;2023-06-22T11:55:42;28.92;;;24.90;;
22111;SDS011;11222;50.872;4.312;2023-06-22T11:58:09;31.88;;;24.50;;
22111;SDS011;11222;50.872;4.312;2023-06-22T12:00:36;28.95;;;24.27;;
22111;SDS011;11222;50.872;4.312;2023-06-22T12:03:02;26.83;;;23.92;;
22111;SDS011;11222;50.872;4.312;2023-06-22T12:05:28;27.73;;;24.80;;
22111;SDS011;11222;50.872;4.312;2023-06-22T12:07:54;28.00;;;23.98;;
22111;SDS011;11222;50.872;4.312;2023-06-22T12:10:20;30.50;;;25.42;;
22111;SDS011;11222;50.872;4.312;2023-06-22T12:12:46;31.20;;;25.50;;
22111;SDS011;11222;50.872;4.312;2023-06-22T12:15:12;29.58;;;26.38;;
22111;SDS011;11222;50.872;4.312;2023-06-22T12:17:38;31.52;;;27.00;;
22111;SDS011;11222;50.872;4.312;2023-06-22T12:20:04;30.52;;;26.42;;
22111;SDS011;11222;50.872;4.312;2023-06-22T12:22:33;32.72;;;27.65;;
22111;SDS011;11222;50.872;4.312;2023-06-22T12:24:59;31.77;;;28.35;;
22111;SDS011;11222;50.872;4.312;2023-06-22T12:27:25;32.50;;;26.77;;
22111;SDS011;11222;50.872;4.312;2023-06-22T12:29:51;30.83;;;27.40;;
22111;SDS011;11222;50.872;4.312;2023-06-22T12:32:17;36.72;;;30.15;;
22111;SDS011;11222;50.872;4.312;2023-06-22T12:34:43;38.15;;;29.17;;
22111;SDS011;11222;50.872;4.312;2023-06-22T12:37:10;35.75;;;30.02;;
22111;SDS011;11222;50.872;4.312;2023-06-22T12:39:36;37.75;;;31.08;;
22111;SDS011;11222;50.872;4.312;2023-06-22T12:42:01;38.22;;;32.70;;
22111;SDS011;11222;50.872;4.312;2023-06-22T12:44:27;39.78;;;32.88;;
22111;SDS011;11222;50.872;4.312;2023-06-22T12:46:53;37.60;;;32.97;;
22111;SDS011;11222;50.872;4.312;2023-06-22T12:49:19;40.10;;;34.78;;
22111;SDS011;11222;50.872;4.312;2023-06-22T12:51:45;46.05;;;34.63;;
22111;SDS011;11222;50.872;4.312;2023-06-22T12:54:11;41.78;;;35.45;;
22111;SDS011;11222;50.872;4.312;2023-06-22T12:56:37;42.53;;;35.33;;
22111;SDS011;11222;50.872;4.312;2023-06-22T12:59:03;43.65;;;35.70;;
22111;SDS011;11222;50.872;4.312;2023-06-22T13:01:31;48.70;;;37.85;;
22111;SDS011;11222;50.872;4.312;2023-06-22T13:03:57;44.08;;;36.50;;
22111;SDS011;11222;50.872;4.312;2023-06-22T13:06:23;47.42;;;38.47;;
22111;SDS011;11222;50.872;4.312;2023-06-22T13:08:49;47.33;;;38.67;;
22111;SDS011;11222;50.872;4.312;2023-06-22T13:11:15;49.47;;;38.75;;
22111;SDS011;11222;50.872;4.312;2023-06-22T13:13:41;47.55;;;38.35;;
22111;SDS011;11222;50.872;4.312;2023-06-22T13:16:06;47.75;;;38.25;;
22111;SDS011;11222;50.872;4.312;2023-06-22T13:18:32;45.65;;;36.83;;
22111;SDS011;11222;50.872;4.312;2023-06-22T13:21:00;49.13;;;38.65;;
22111;SDS011;11222;50.872;4.312;2023-06-22T13:23:26;46.33;;;38.40;;
22111;SDS011;11222;50.872;4.312;2023-06-22T13:25:52;46.67;;;37.00;;
22111;SDS011;11222;50.872;4.312;2023-06-22T13:28:18;56.25;;;41.67;;
22111;SDS011;11222;50.872;4.312;2023-06-22T13:30:47;53.78;;;39.45;;
22111;SDS011;11222;50.872;4.312;2023-06-22T13:33:13;51.00;;;38.63;;
22111;SDS011;11222;50.872;4.312;2023-06-22T13:35:39;65.88;;;47.30;;
22111;SDS011;11222;50.872;4.312;2023-06-22T13:38:07;50.70;;;38.50;;
22111;SDS011;11222;50.872;4.312;2023-06-22T13:40:34;48.70;;;40.65;;
22111;SDS011;11222;50.872;4.312;2023-06-22T13:42:59;45.88;;;37.28;;
22111;SDS011;11222;50.872;4.312;2023-06-22T13:45:25;49.13;;;39.55;;
22111;SDS011;11222;50.872;4.312;2023-06-22T13:47:51;47.38;;;37.28;;
22111;SDS011;11222;50.872;4.312;2023-06-22T13:50:17;43.28;;;35.75;;
22111;SDS011;11222;50.872;4.312;2023-06-22T13:52:43;42.10;;;35.92;;
22111;SDS011;11222;50.872;4.312;2023-06-22T13:55:09;49.15;;;37.67;;
22111;SDS011;11222;50.872;4.312;2023-06-22T13:57:35;43.92;;;35.83;;
22111;SDS011;11222;50.872;4.312;2023-06-22T14:00:01;48.03;;;38.38;;
22111;SDS011;11222;50.872;4.312;2023-06-22T14:02:29;47.00;;;38.78;;
22111;SDS011;11222;50.872;4.312;2023-06-22T14:04:55;43.42;;;36.92;;
22111;SDS011;11222;50.872;4.312;2023-06-22T14:07:21;45.58;;;36.80;;
22111;SDS011;11222;50.872;4.312;2023-06-22T14:09:46;45.72;;;36.97;;
22111;SDS011;11222;50.872;4.312;2023-06-22T14:12:12;42.63;;;35.05;;
22111;SDS011;11222;50.872;4.312;2023-06-22T14:14:38;41.83;;;36.60;;
22111;SDS011;11222;50.872;4.312;2023-06-22T14:17:04;41.78;;;36.42;;
22111;SDS011;11222;50.872;4.312;2023-06-22T14:19:30;45.00;;;36.45;;
22111;SDS011;11222;50.872;4.312;2023-06-22T14:21:56;45.40;;;37.45;;
22111;SDS011;11222;50.872;4.312;2023-06-22T14:24:22;50.50;;;39.65;;
22111;SDS011;11222;50.872;4.312;2023-06-22T14:26:48;48.67;;;39.20;;
22111;SDS011;11222;50.872;4.312;2023-06-22T14:29:14;46.78;;;39.40;;